Latest Weather Observations for Mangalore

IDV60801

Issued at 1:02 pm EST Friday 30 September 2016 (issued every 30 minutes, with the page automatically refreshed every 10 minutes)

About weather observations | Map of weather stations | Latest weather observations for VIC | Other Formats
Station Details ID: 088109 Name: MANGALORE AIRPORT Lat: -36.89 Lon: 145.19 Height: 140.8 m
Data from the previous 72 hours. | See also: Recent months at Mangalore
Date/Time
EST
Temp
°C
App
Temp
°C
Dew
Point
°C
Rel
Hum
%
Delta-T
°C
Wind Press
QNH
hPa
Press
MSL
hPa
Rain since
9am
mm
Dir  Spd
km/h
Gust
km/h
Spd
kts
Gust
kts
30/01:00pm 12.6 9.8 8.5 76 2.1 WNW 13 20 7 11 993.8 993.8 0.2
30/12:30pm 12.4 9.4 7.7 73 2.3 NNW 13 17 7 9 993.7 993.7 0.2
30/12:00pm 11.7 8.6 7.4 75 2.1 WNW 13 17 7 9 993.6 993.6 0.2
30/11:36am 12.1 10.3 7.8 75 2.1 WNW 7 11 4 6 993.5 993.5 0.0
30/11:30am 11.4 9.7 7.7 78 1.8 WNW 6 11 3 6 993.5 993.5 0.0
30/11:00am 11.8 10.6 9.7 87 1.1 NW 6 11 3 6 993.2 993.2 0.0
30/10:41am 10.2 8.5 8.3 88 0.9 WNW 7 13 4 7 993.3 993.3 0.0
30/10:30am 10.5 8.6 7.6 82 1.4 NW 7 9 4 5 993.3 993.3 0.0
30/10:11am 9.2 7.6 8.9 98 0.1 NW 7 9 4 5 993.2 993.2 0.0
30/10:05am 9.1 7.5 8.6 97 0.2 WNW 7 9 4 5 993.2 993.2 0.0
30/10:00am 9.0 7.1 7.5 90 0.7 WNW 7 11 4 6 993.2 993.2 0.0
30/09:52am 9.2 6.9 7.6 90 0.8 WNW 9 13 5 7 993.1 993.1 0.0
30/09:51am 9.2 6.9 7.6 90 0.8 WNW 9 13 5 7 993.0 993.0 0.0
30/09:40am 9.9 8.3 8.2 89 0.8 NW 6 9 3 5 992.9 992.9 0.0
30/09:30am 9.5 7.4 6.8 83 1.3 NNW 7 11 4 6 992.7 992.7 0.0
30/09:09am 9.5 7.3 7.9 90 0.8 N 9 13 5 7 992.6 992.6 0.0
30/09:00am 9.1 6.8 7.4 89 0.8 N 9 13 5 7 992.5 992.5 12.6
30/08:30am 8.1 6.2 7.7 97 0.2 N 7 11 4 6 992.2 992.2 12.6
30/08:16am 7.7 5.8 7.6 99 0.0 N 7 11 4 6 992.0 992.0 12.6
30/08:10am 7.5 5.6 7.4 99 0.0 N 7 11 4 6 991.9 991.9 12.6
30/08:00am 7.1 5.1 7.0 99 0.0 N 7 11 4 6 991.7 991.7 12.6
30/07:47am 7.4 4.7 7.3 99 0.0 N 11 15 6 8 991.5 991.5 12.6
30/07:43am 7.5 4.8 7.4 99 0.0 N 11 15 6 8 991.4 991.4 12.6
30/07:42am 7.5 4.8 7.4 99 0.0 N 11 15 6 8 991.4 991.4 12.6
30/07:30am 7.3 4.6 7.2 99 0.0 NNE 11 13 6 7 991.4 991.4 12.6
30/07:24am 7.4 5.1 7.3 99 0.0 NE 9 13 5 7 991.3 991.3 12.6
30/07:00am 7.3 5.5 7.2 99 0.0 NW 6 9 3 5 991.1 991.1 12.6
30/06:43am 7.0 5.1 6.9 99 0.0 NW 6 7 3 4 990.8 990.8 12.6
30/06:30am 6.9 5.0 6.8 99 0.0 NW 6 11 3 6 990.6 990.6 12.6
30/06:00am 6.6 4.5 6.5 99 0.0 NW 7 11 4 6 990.4 990.4 12.6
30/05:30am 6.7 3.1 6.6 99 0.0 NNW 15 20 8 11 990.0 990.0 12.6
30/05:00am 6.9 3.7 6.8 99 0.0 NW 13 20 7 11 989.7 989.7 12.6
30/04:30am 7.6 3.8 7.5 99 0.0 NW 17 24 9 13 989.2 989.2 12.6
30/04:26am 7.8 3.7 7.7 99 0.0 NW 19 24 10 13 989.2 989.2 12.6
30/04:23am 8.0 4.3 7.9 99 0.0 NW 17 24 9 13 989.2 989.2 12.6
30/04:13am 8.2 5.3 8.2 100 0.0 NNW 13 19 7 10 989.0 989.1 12.6
30/04:00am 8.3 5.4 8.3 100 0.0 NNW 13 19 7 10 988.9 989.0 12.6
30/03:54am 8.5 6.1 8.5 100 0.0 NNW 11 15 6 8 988.8 988.9 12.6
30/03:30am 8.4 6.3 8.4 100 0.0 N 9 13 5 7 988.6 988.7 12.6
30/03:21am 8.4 6.3 8.4 100 0.0 N 9 15 5 8 988.5 988.6 12.6
30/03:00am 8.6 5.4 8.6 100 0.0 N 15 20 8 11 988.6 988.7 12.2
30/02:47am 8.7 5.2 8.7 100 0.0 NNE 17 22 9 12 988.7 988.8 11.6
30/02:30am 8.9 4.5 8.9 100 0.0 NNE 22 32 12 17 988.6 988.7 11.4
30/02:14am 8.9 3.7 8.9 100 0.0 NNE 26 33 14 18 988.6 988.7 11.4
30/02:00am 8.9 4.1 8.9 100 0.0 NNE 24 32 13 17 988.7 988.8 11.4
30/01:41am 9.1 4.0 9.1 100 0.0 NNE 26 37 14 20 988.7 988.8 11.2
30/01:30am 9.1 4.7 9.1 100 0.0 NNE 22 32 12 17 988.9 989.0 11.2
30/01:26am 9.1 4.7 9.1 100 0.0 NNE 22 32 12 17 988.9 989.0 11.2
30/01:00am 9.1 4.0 9.1 100 0.0 NNE 26 35 14 19 989.0 989.1 11.0
30/12:44am 9.0 4.2 9.0 100 0.0 NNE 24 32 13 17 989.2 989.2 10.8
30/12:31am 9.1 4.4 9.1 100 0.0 NNE 24 37 13 20 989.3 989.3 10.8
30/12:30am 9.1 4.4 9.1 100 0.0 NNE 24 37 13 20 989.3 989.3 10.8
30/12:10am 9.1 4.4 9.1 100 0.0 NNE 24 35 13 19 989.4 989.4 10.6
30/12:05am 9.1 4.4 9.1 100 0.0 NNE 24 35 13 19 989.4 989.4 10.6
30/12:00am 9.1 4.4 9.1 100 0.0 NNE 24 35 13 19 989.4 989.4 10.6
 
Date/Time
EST
Temp
°C
App
Temp
°C
Dew
Point
°C
Rel
Hum
%
Delta-T
°C
Wind Press
QNH
hPa
Press
MSL
hPa
Rain since
9am
mm
Dir  Spd
km/h
Gust
km/h
Spd
kts
Gust
kts
29/11:30pm 9.1 4.7 9.1 100 0.0 NNE 22 35 12 19 989.5 989.5 10.6
29/11:18pm 9.0 4.2 9.0 100 0.0 N 24 37 13 20 989.6 989.6 10.4
29/11:15pm 9.1 3.9 9.0 99 0.0 NNE 26 37 14 20 989.6 989.6 10.2
29/11:00pm 9.1 3.2 9.1 100 0.0 NNE 30 39 16 21 989.5 989.5 10.2
29/10:30pm 8.9 1.6 8.8 99 0.0 NE 37 50 20 27 989.6 989.6 10.0
29/10:07pm 8.7 2.3 8.7 100 0.0 NE 32 43 17 23 989.7 989.7 10.0
29/10:00pm 8.6 2.6 8.6 100 0.0 NE 30 39 16 21 989.8 989.8 10.0
29/09:54pm 8.5 2.5 8.5 100 0.0 NE 30 41 16 22 989.8 989.8 9.8
29/09:30pm 8.5 3.2 8.4 99 0.0 NNE 26 33 14 18 990.4 990.4 8.2
29/09:00pm 8.7 3.1 8.6 99 0.0 NE 28 39 15 21 990.5 990.5 4.8
29/08:56pm 8.7 2.3 8.6 99 0.0 NE 32 43 17 23 990.5 990.5 4.6
29/08:51pm 8.8 2.4 8.7 99 0.0 NE 32 43 17 23 990.5 990.5 4.4
29/08:33pm 8.9 3.3 8.8 99 0.0 NE 28 37 15 20 990.5 990.5 4.0
29/08:30pm 8.9 3.3 8.8 99 0.0 NE 28 37 15 20 990.4 990.4 4.0
29/08:03pm 9.0 3.4 8.9 99 0.0 NE 28 39 15 21 990.7 990.7 3.0
29/08:00pm 9.0 3.8 8.9 99 0.0 NE 26 39 14 21 990.6 990.6 2.8
29/07:30pm 8.9 3.7 8.8 99 0.0 NE 26 37 14 20 990.6 990.6 2.4
29/07:00pm 8.6 4.5 8.5 99 0.0 NE 20 24 11 13 990.7 990.7 2.4
29/06:30pm 8.6 4.5 8.5 99 0.0 NE 20 30 11 16 990.7 990.7 2.2
29/06:00pm 9.0 4.0 8.1 94 0.4 NE 24 33 13 18 990.7 990.7 2.0
29/05:30pm 9.5 4.5 7.9 90 0.8 NNE 24 32 13 17 990.4 990.4 2.0
29/05:02pm 9.1 5.1 8.2 94 0.4 N 19 24 10 13 990.4 990.4 2.0
29/05:00pm 8.9 5.1 7.7 92 0.6 N 17 24 9 13 990.4 990.4 2.0
29/04:48pm 8.4 1.9 6.7 89 0.8 N 30 48 16 26 990.5 990.5 2.0
29/04:46pm 8.5 1.6 6.5 87 0.9 N 32 48 17 26 990.6 990.6 1.8
29/04:41pm 9.8 3.6 6.3 79 1.6 N 28 46 15 25 990.6 990.6 1.6
29/04:30pm 10.7 5.2 6.1 73 2.2 N 24 35 13 19 990.1 990.1 1.4
29/04:16pm 10.8 4.7 6.7 76 1.9 N 28 39 15 21 990.0 990.0 1.4
29/04:01pm 9.7 3.3 7.0 83 1.3 N 30 44 16 24 990.0 990.0 1.4
29/04:00pm 9.7 3.2 6.6 81 1.5 N 30 44 16 24 990.0 990.0 1.4
29/03:38pm 12.1 5.9 6.2 67 2.8 N 28 46 15 25 989.7 989.7 0.8
29/03:30pm 12.4 7.6 7.5 72 2.4 NNW 22 30 12 16 989.8 989.8 0.8
29/03:00pm 12.0 7.7 7.7 75 2.1 NNW 20 32 11 17 989.5 989.5 0.6
29/02:30pm 13.1 5.7 4.0 54 4.2 N 32 43 17 23 989.5 989.5 0.2
29/02:00pm 14.0 8.1 5.6 57 4.0 N 26 39 14 21 989.9 989.9 0.2
29/01:30pm 13.2 6.1 3.3 51 4.5 N 30 43 16 23 990.2 990.2 0.0
29/01:00pm 13.4 7.2 4.3 54 4.2 N 26 39 14 21 990.8 990.8 0.0
29/12:48pm 13.2 6.7 4.6 56 4.0 N 28 50 15 27 990.9 990.9 0.0
29/12:30pm 13.8 8.6 7.3 65 3.2 N 24 35 13 19 991.2 991.2 0.0
29/12:00pm 13.5 8.0 5.7 59 3.7 N 24 35 13 19 991.9 991.9 0.0
29/11:30am 12.4 6.9 6.0 65 3.0 NNW 24 32 13 17 992.0 992.0 0.0
29/11:00am 11.9 5.9 5.5 65 3.0 NW 26 33 14 18 992.1 992.1 0.0
29/10:30am 11.3 6.7 6.4 72 2.3 NW 20 26 11 14 991.8 991.8 0.0
29/10:00am 11.5 7.2 7.8 78 1.8 NW 20 28 11 15 991.9 991.9 0.0
29/09:30am 11.1 6.9 8.1 82 1.5 NW 20 30 11 16 992.0 992.0 0.0
29/09:00am 9.7 5.1 8.1 90 0.8 NW 22 33 12 18 991.7 991.7 15.2
29/08:30am 9.7 3.9 8.0 89 0.8 NW 28 35 15 19 991.8 991.8 15.2
29/08:00am 10.0 6.1 8.8 92 0.6 NNW 19 28 10 15 991.4 991.4 15.2
29/07:30am 10.2 6.0 8.3 88 0.9 NW 20 33 11 18 991.0 991.0 15.0
29/07:17am 10.4 5.5 8.3 87 1.0 NW 24 33 13 18 990.9 990.9 15.0
29/07:00am 11.2 6.8 10.3 94 0.5 NNW 24 35 13 19 991.0 991.0 15.0
29/06:30am 11.7 8.6 11.5 99 0.1 NNE 19 33 10 18 990.6 990.6 15.0
29/06:01am 11.8 8.2 11.8 100 0.0 N 22 32 12 17 990.1 990.1 15.0
29/06:00am 11.8 8.2 11.8 100 0.0 N 22 32 12 17 990.2 990.2 15.0
29/05:55am 11.9 8.3 11.9 100 0.0 N 22 39 12 21 990.0 990.0 15.0
29/05:43am 11.8 7.4 11.8 100 0.0 NNE 26 35 14 19 990.4 990.4 14.8
29/05:30am 11.9 8.3 11.9 100 0.0 NNE 22 32 12 17 990.5 990.5 13.6
29/05:00am 12.2 6.8 12.2 100 0.0 NNE 32 44 17 24 990.4 990.4 13.4
29/04:30am 12.0 8.4 12.0 100 0.0 NNE 22 35 12 19 990.3 990.3 13.0
29/04:21am 11.9 7.9 11.9 100 0.0 N 24 33 13 18 990.3 990.3 13.0
29/04:00am 11.8 6.3 11.8 100 0.0 NNE 32 44 17 24 990.6 990.6 12.2
29/03:30am 11.7 6.0 11.7 100 0.0 NNE 33 57 18 31 990.7 990.7 11.0
29/03:07am 11.4 5.2 11.4 100 0.0 NE 35 54 19 29 990.9 990.9 9.2
29/03:00am 11.3 4.7 11.3 100 0.0 NE 37 52 20 28 990.9 990.9 8.8
29/02:51am 11.4 5.8 11.4 100 0.0 NNE 32 52 17 28 991.3 991.3 8.2
29/02:30am 11.2 5.3 11.2 100 0.0 NE 33 46 18 25 991.7 991.7 6.8
29/02:28am 11.2 4.9 11.2 100 0.0 NE 35 46 19 25 991.8 991.8 6.6
29/02:00am 11.4 4.4 11.2 99 0.1 NE 39 52 21 28 992.9 992.9 4.8
29/01:47am 11.6 4.3 11.4 99 0.1 NE 41 59 22 32 993.1 993.1 4.4
29/01:30am 11.7 5.5 11.5 99 0.1 NE 35 57 19 31 994.1 994.1 3.8
29/01:24am 11.7 5.5 11.5 99 0.1 NE 35 50 19 27 994.4 994.5 3.8
29/01:02am 12.0 4.4 10.6 91 0.7 NNE 41 65 22 35 994.9 995.0 2.4
29/01:00am 12.1 4.4 10.3 89 0.9 NNE 41 65 22 35 995.1 995.2 2.2
29/12:53am 12.6 5.6 10.0 84 1.3 NNE 37 65 20 35 995.0 995.1 1.8
29/12:30am 12.8 6.1 9.6 81 1.6 NE 35 46 19 25 995.2 995.3 1.4
29/12:00am 12.3 6.0 9.7 84 1.3 NE 33 48 18 26 995.4 995.5 1.2
 
Date/Time
EST
Temp
°C
App
Temp
°C
Dew
Point
°C
Rel
Hum
%
Delta-T
°C
Wind Press
QNH
hPa
Press
MSL
hPa
Rain since
9am
mm
Dir  Spd
km/h
Gust
km/h
Spd
kts
Gust
kts
28/11:43pm 12.8 6.1 9.8 82 1.5 NE 35 54 19 29 996.4 996.5 0.8
28/11:30pm 12.6 5.8 9.4 81 1.6 NE 35 46 19 25 996.1 996.2 0.8
28/11:18pm 13.0 6.6 8.7 75 2.2 NE 32 50 17 27 996.4 996.5 0.4
28/11:00pm 13.9 6.8 7.9 67 3.0 NE 35 48 19 26 997.5 997.5 0.2
28/10:31pm 13.8 7.1 8.0 68 2.9 NE 33 52 18 28 997.5 997.5 0.2
28/10:30pm 13.8 7.1 8.0 68 2.9 NE 33 48 18 26 997.5 997.5 0.2
28/10:00pm 13.3 6.8 8.2 71 2.6 NE 32 43 17 23 998.9 998.9 0.2
28/09:30pm 13.1 6.6 8.0 71 2.5 NE 32 41 17 22 999.9 999.9 0.2
28/09:00pm 13.0 8.0 8.1 72 2.5 NE 24 33 13 18 1000.6 1000.7 0.2
28/08:30pm 13.0 8.4 8.3 73 2.3 NE 22 33 12 18 1001.0 1001.1 0.2
28/08:00pm 12.6 8.4 8.3 75 2.2 NE 20 28 11 15 1001.4 1001.5 0.2
28/07:30pm 13.0 8.4 8.3 73 2.3 NE 22 32 12 17 1001.5 1001.6 0.2
28/07:00pm 13.0 8.9 8.5 74 2.3 ENE 20 26 11 14 1001.5 1001.6 0.2
28/06:30pm 13.3 9.1 8.4 72 2.5 NE 20 28 11 15 1002.3 1002.4 0.2
28/06:00pm 14.0 9.8 8.4 69 2.8 NE 20 28 11 15 1002.5 1002.6 0.2
28/05:30pm 14.5 8.8 8.2 66 3.2 NE 28 35 15 19 1003.0 1003.1 0.2
28/05:00pm 15.0 9.8 8.7 66 3.2 NE 26 35 14 19 1003.5 1003.6 0.2
28/04:30pm 15.2 10.3 8.4 64 3.5 NNE 24 33 13 18 1004.5 1004.5 0.2
28/04:00pm 15.2 9.8 8.0 62 3.6 NNE 26 39 14 21 1004.8 1004.8 0.2
28/03:30pm 15.0 8.7 7.3 60 3.8 NNE 30 41 16 22 1005.2 1005.2 0.2
28/03:00pm 15.5 9.7 7.8 60 3.9 NE 28 35 15 19 1005.2 1005.2 0.2
28/02:30pm 15.3 9.5 7.8 61 3.8 NE 28 37 15 20 1006.1 1006.2 0.2
28/02:00pm 15.0 9.5 7.5 61 3.8 NE 26 33 14 18 1007.1 1007.2 0.2
28/01:30pm 15.7 10.4 8.4 62 3.7 NE 26 33 14 18 1008.0 1008.1 0.2
28/01:00pm 14.7 8.8 7.5 62 3.6 NE 28 39 15 21 1009.0 1009.1 0.2
28/12:30pm 15.4 10.7 7.7 60 3.9 NNE 22 28 12 15 1010.2 1010.3 0.2
28/12:00pm 15.8 11.7 8.5 62 3.7 NNE 20 28 11 15 1010.9 1011.0 0.2
28/11:30am 15.5 11.6 8.5 63 3.6 NNE 19 26 10 14 1011.7 1011.7 0.0
28/11:00am 13.8 9.9 8.6 71 2.6 N 19 30 10 16 1012.6 1012.7 0.0
28/10:30am 14.1 10.7 9.3 73 2.5 N 17 24 9 13 1012.9 1013.0 0.0
28/10:00am 13.3 10.6 10.5 83 1.5 NNE 15 24 8 13 1013.3 1013.4 0.0
28/09:30am 12.0 8.6 9.2 83 1.4 NNE 17 20 9 11 1013.7 1013.8 0.0
28/09:00am 11.2 9.1 11.0 99 0.1 NNE 13 19 7 10 1013.9 1014.0 3.4
28/08:55am 11.1 8.9 10.9 99 0.1 NNE 13 19 7 10 1013.9 1014.0 3.4
28/08:35am 10.4 8.1 10.4 100 0.0 NNE 13 19 7 10 1014.0 1014.1 3.4
28/08:30am 10.7 8.1 10.7 100 0.0 NNE 15 19 8 10 1014.0 1014.1 3.4
28/08:00am 8.3 7.2 8.3 100 0.0 SE 4 7 2 4 1014.1 1014.2 3.4
28/07:30am 6.7 4.8 6.7 100 0.0 SE 6 7 3 4 1014.2 1014.3 3.4
28/07:06am 5.6 3.5 5.6 100 0.0 SE 6 7 3 4 1014.2 1014.3 3.4
28/07:03am 5.7 3.6 5.7 100 0.0 SE 6 7 3 4 1014.2 1014.3 3.4
28/07:00am 5.6 3.5 5.6 100 0.0 SE 6 7 3 4 1014.2 1014.3 3.4
28/06:30am 4.3 1.3 4.3 100 0.0 SE 9 9 5 5 1014.0 1014.1 3.4
28/06:00am 4.0 1.5 4.0 100 0.0 SE 6 7 3 4 1014.0 1014.1 3.4
28/05:30am 3.0 1.5 3.0 100 0.0 CALM 0 2 0 1 1013.8 1013.9 3.4
28/05:00am 2.7 1.1 2.7 100 0.0 CALM 0 0 0 0 1013.6 1013.7 3.4
28/04:30am 3.0 1.5 3.0 100 0.0 CALM 0 0 0 0 1013.5 1013.6 3.4
28/04:27am 2.9 1.4 2.9 100 0.0 CALM 0 0 0 0 1013.5 1013.6 3.4
28/04:00am 3.6 2.2 3.6 100 0.0 CALM 0 0 0 0 1013.5 1013.6 3.4
28/03:30am 3.2 1.7 3.2 100 0.0 CALM 0 0 0 0 1013.5 1013.6 3.4
28/03:13am 3.5 1.3 3.5 100 0.0 SE 4 7 2 4 1013.5 1013.6 3.4
28/03:00am 3.4 1.2 3.4 100 0.0 SE 4 7 2 4 1013.4 1013.5 3.4
28/02:57am 3.4 1.6 3.4 100 0.0 SE 2 6 1 3 1013.4 1013.5 3.4
28/02:30am 3.3 0.7 3.3 100 0.0 SE 6 9 3 5 1013.5 1013.6 3.4
28/02:00am 3.8 2.4 3.8 100 0.0 CALM 0 0 0 0 1013.8 1013.9 3.4
28/01:30am 4.5 3.3 4.5 100 0.0 CALM 0 0 0 0 1013.7 1013.8 3.4
28/01:00am 4.5 2.1 4.5 100 0.0 SE 6 6 3 3 1013.7 1013.8 3.4
28/12:30am 4.6 3.4 4.6 100 0.0 CALM 0 0 0 0 1013.7 1013.8 3.4
28/12:23am 4.4 2.8 4.4 100 0.0 SE 2 6 1 3 1013.7 1013.8 3.4
28/12:00am 4.4 2.4 4.4 100 0.0 SE 4 9 2 5 1013.6 1013.7 3.4
 
Date/Time
EST
Temp
°C
App
Temp
°C
Dew
Point
°C
Rel
Hum
%
Delta-T
°C
Wind Press
QNH
hPa
Press
MSL
hPa
Rain since
9am
mm
Dir  Spd
km/h
Gust
km/h
Spd
kts
Gust
kts
27/11:30pm 5.3 4.2 5.3 100 0.0 CALM 0 0 0 0 1013.9 1014.0 3.4
27/11:00pm 6.4 5.6 6.4 100 0.0 CALM 0 0 0 0 1013.9 1014.0 3.4
27/10:30pm 6.1 5.2 6.1 100 0.0 CALM 0 0 0 0 1013.8 1013.9 3.4
27/10:04pm 6.8 6.1 6.8 100 0.0 CALM 0 0 0 0 1013.8 1013.9 3.4
27/10:00pm 7.0 6.3 7.0 100 0.0 CALM 0 0 0 0 1013.8 1013.9 3.4
27/09:33pm 7.4 6.8 7.4 100 0.0 CALM 0 0 0 0 1013.9 1014.0 3.4
27/09:30pm 7.4 6.8 7.4 100 0.0 CALM 0 0 0 0 1013.9 1014.0 3.4
27/09:23pm 7.3 6.7 7.3 100 0.0 CALM 0 4 0 2 1014.0 1014.1 3.4
27/09:19pm 7.1 6.0 7.1 100 0.0 SE 2 6 1 3 1014.0 1014.1 3.4
27/09:00pm 7.2 5.4 7.2 100 0.0 SE 6 7 3 4 1014.1 1014.2 3.4
27/08:30pm 8.0 7.2 8.0 100 0.0 SE 2 6 1 3 1013.9 1014.0 3.4
27/08:03pm 8.0 6.2 8.0 100 0.0 SE 7 7 4 4 1013.8 1013.9 3.4
27/08:00pm 8.0 6.2 8.0 100 0.0 SE 7 9 4 5 1013.8 1013.9 3.4
27/07:30pm 8.5 8.2 8.5 100 0.0 CALM 0 9 0 5 1013.7 1013.8 3.4
27/07:00pm 8.8 8.5 8.7 99 0.0 CALM 0 0 0 0 1013.6 1013.7 3.4
27/06:30pm 10.7 9.4 9.9 95 0.4 SE 7 7 4 4 1013.3 1013.4 3.4
27/06:00pm 12.3 11.1 9.5 83 1.4 SE 6 7 3 4 1013.2 1013.3 3.4
27/05:30pm 13.2 11.4 9.3 77 2.0 SE 9 11 5 6 1013.0 1013.1 3.4
27/05:00pm 13.0 11.2 9.3 78 1.9 SE 9 9 5 5 1012.7 1012.8 3.4
27/04:30pm 13.3 11.4 9.2 76 2.1 SE 9 11 5 6 1012.3 1012.4 3.4
27/04:00pm 13.1 11.4 11.3 89 1.0 SE 11 13 6 7 1012.1 1012.2 3.4
27/03:30pm 13.4 11.4 8.7 73 2.4 S 9 13 5 7 1011.9 1011.9 3.0
27/03:18pm 13.6 12.1 9.1 74 2.3 S 7 11 4 6 1011.8 1011.8 3.0
27/03:00pm 12.0 9.8 9.4 84 1.3 SSW 11 22 6 12 1012.0 1012.0 3.0
27/02:57pm 12.0 10.0 8.7 80 1.7 SW 9 22 5 12 1012.1 1012.2 1.8
27/02:35pm 13.2 11.8 8.9 75 2.2 SW 6 7 3 4 1012.1 1012.2 0.8
27/02:30pm 12.8 11.3 8.5 75 2.2 SW 6 11 3 6 1012.1 1012.2 0.8
27/02:16pm 12.4 9.1 7.9 74 2.2 WSW 15 20 8 11 1012.4 1012.5 0.4
27/02:00pm 14.5 10.2 7.1 61 3.6 W 19 24 10 13 1012.3 1012.4 0.0
27/01:30pm 14.5 12.0 8.0 65 3.3 W 11 20 6 11 1012.4 1012.5 0.0

Other Formats:

Comma delimited format used in spreadsheet applications
http://www.bom.gov.au/fwo/IDV60801/IDV60801.94874.axf

JavaScript Object Notation format (JSON) in row-major order
http://www.bom.gov.au/fwo/IDV60801/IDV60801.94874.json